Kerikeri/Bay of Islands (NZKK)

Aerodrome — Elev 492
New Zealand
S035.15.46.001 E173.54.42.998
Loading chart...

Current Weather

NZKK 221100Z 20003KT 19KM FEW028 BKN049 BKN220 11/11 Q1014 RMK AUTO VATSIM USE O

Published 34 minutes ago

Airport Activity

Loading chart...
Loading chart...

Standard ATC Positions

CallsignRadio Name / Freq / Voice Room / TypeFrequencyVoice RoomType
NZCH-R_CTR Auckland Control
126.000
nzch-r_ctr
126.000nzch-r_ctr
UNICOM NZZC UNICOM
122.800
unicom_nzzc
122.800unicom_nzzc

Event ATC Positions

This airport has control positions that are designated for use only during major events.
These positions should not be staffed unless specifically activated by the VATNZ Airspace Director as part of an official VATNZ event.

CallsignRadio Name / Freq / Voice Room / TypeFrequencyVoice RoomType
NZAA_CTR Auckland Control
123.900
nzaa_ctr
123.900nzaa_ctr

Charts

Other Charts

Operational Data